Time;durP1;ratioP1;P1;durP2;ratioP2;P2;SDS_P1;SDS_P2;PMS_P1;PMS_P2;Temp;Humidity;BMP_temperature;BMP_pressure;BME280_temperature;BME280_humidity;BME280_pressure;Samples;Min_cycle;Max_cycle;Signal;HPM_P1;HPM_P2
2024/01/12 00:03:07;;;;;;;32.03;16.63;;;;;;;-144.32;100.00;68061.97;10350992;28;20066;-80
2024/01/12 00:09:06;;;;;;;35.20;18.88;;;;;;;-144.32;100.00;68061.97;10355889;28;20068;-78
2024/01/12 00:15:05;;;;;;;33.83;18.63;;;;;;;-144.32;100.00;68061.97;10340959;28;20151;-77
2024/01/12 00:21:04;;;;;;;40.55;20.55;;;;;;;-144.32;100.00;68061.97;10340039;28;20045;-80
2024/01/12 00:27:05;;;;;;;36.38;19.23;;;;;;;-144.32;100.00;68061.97;10358590;28;20139;-79
2024/01/12 00:33:05;;;;;;;31.73;18.10;;;;;;;-144.32;100.00;68061.97;10346219;28;20101;-78
2024/01/12 00:39:04;;;;;;;35.00;20.23;;;;;;;-144.32;100.00;68061.97;10352689;28;20144;-76
2024/01/12 00:45:04;;;;;;;39.47;19.63;;;;;;;-144.32;100.00;68061.97;10356681;28;20049;-80
2024/01/12 00:51:03;;;;;;;32.25;19.52;;;;;;;-144.32;100.00;68061.97;10348722;28;20064;-79
2024/01/12 00:57:02;;;;;;;34.13;19.50;;;;;;;-144.32;100.00;68061.97;10334604;28;20060;-78
2024/01/12 01:03:02;;;;;;;32.03;18.90;;;;;;;-144.32;100.00;68061.97;10338569;28;20606;-77
2024/01/12 01:09:01;;;;;;;31.98;18.65;;;;;;;-144.32;100.00;68061.97;10363365;28;20053;-77
2024/01/12 01:15:00;;;;;;;34.38;19.48;;;;;;;-144.32;100.00;68061.97;10339363;28;20065;-76
2024/01/12 01:20:59;;;;;;;32.38;18.15;;;;;;;-144.32;100.00;68061.97;10356816;28;20056;-80
2024/01/12 01:26:58;;;;;;;35.35;19.38;;;;;;;-144.32;100.00;68061.97;10358983;28;20537;-75
2024/01/12 01:32:57;;;;;;;37.58;19.77;;;;;;;-144.32;100.00;68061.97;10339706;28;20088;-75
2024/01/12 01:38:56;;;;;;;29.20;18.05;;;;;;;-144.32;100.00;68061.97;10360430;28;20081;-76
2024/01/12 01:44:55;;;;;;;29.75;17.05;;;;;;;-144.32;100.00;68061.97;10352571;28;20465;-76
2024/01/12 01:50:55;;;;;;;30.80;18.08;;;;;;;-144.32;100.00;68061.97;10351502;28;20475;-77
2024/01/12 01:56:54;;;;;;;31.33;17.75;;;;;;;-144.32;100.00;68061.97;10361026;28;20064;-75
2024/01/12 02:02:54;;;;;;;34.47;17.48;;;;;;;-144.32;100.00;68061.97;10366115;28;20609;-75
2024/01/12 02:08:53;;;;;;;33.88;16.42;;;;;;;-144.32;100.00;68061.97;10358734;28;20558;-76
2024/01/12 02:14:52;;;;;;;29.35;16.52;;;;;;;-144.32;100.00;68061.97;10346766;28;20505;-76
2024/01/12 02:20:58;;;;;;;26.77;14.77;;;;;;;-144.32;100.00;68061.97;10356438;28;20061;-74
2024/01/12 02:26:57;;;;;;;27.15;15.02;;;;;;;-144.32;100.00;68061.97;10351562;28;20073;-75
2024/01/12 02:32:56;;;;;;;24.02;13.65;;;;;;;-144.32;100.00;68061.97;10338876;28;20495;-75
2024/01/12 02:38:55;;;;;;;23.77;13.23;;;;;;;-144.32;100.00;68061.97;10351237;28;20057;-74
2024/01/12 02:44:54;;;;;;;24.58;13.63;;;;;;;-144.32;100.00;68061.97;10352907;28;20061;-76
2024/01/12 02:50:53;;;;;;;25.02;13.15;;;;;;;-144.32;100.00;68061.97;10334554;28;20090;-76
2024/01/12 02:56:52;;;;;;;21.52;13.32;;;;;;;-144.32;100.00;68061.97;10337306;28;20237;-76
2024/01/12 03:02:53;;;;;;;24.83;14.32;;;;;;;-144.32;100.00;68061.97;10355545;28;20513;-75
2024/01/12 03:08:52;;;;;;;26.05;13.65;;;;;;;-144.32;100.00;68061.97;10354779;28;20057;-75
2024/01/12 03:14:51;;;;;;;23.92;13.90;;;;;;;-144.32;100.00;68061.97;10352259;28;20054;-75
2024/01/12 03:20:50;;;;;;;26.25;13.25;;;;;;;-144.32;100.00;68061.97;10330493;28;21149;-78
2024/01/12 03:26:49;;;;;;;25.95;14.00;;;;;;;-144.32;100.00;68061.97;10354076;28;20066;-77
2024/01/12 03:32:50;;;;;;;27.38;13.32;;;;;;;-144.32;100.00;68061.97;10353490;28;20097;-78
2024/01/12 03:38:52;;;;;;;23.65;13.73;;;;;;;-144.32;100.00;68061.97;10355332;28;21259;-76
2024/01/12 03:44:51;;;;;;;23.33;13.13;;;;;;;-144.32;100.00;68061.97;10348382;28;20127;-77
2024/01/12 03:50:50;;;;;;;26.23;13.40;;;;;;;-144.32;100.00;68061.97;10337227;28;20058;-77
2024/01/12 03:56:49;;;;;;;25.35;12.60;;;;;;;-144.32;100.00;68061.97;10351980;28;21049;-74
2024/01/12 04:02:48;;;;;;;21.27;12.10;;;;;;;-144.32;100.00;68061.97;10353937;28;20057;-76
2024/01/12 04:08:47;;;;;;;20.25;12.20;;;;;;;-144.32;100.00;68061.97;10350757;28;20050;-74
2024/01/12 04:14:46;;;;;;;23.05;13.13;;;;;;;-144.32;100.00;68061.97;10355726;28;20530;-76
2024/01/12 04:20:45;;;;;;;20.33;12.57;;;;;;;-144.32;100.00;68061.97;10337284;28;20062;-75
2024/01/12 04:26:44;;;;;;;22.75;12.38;;;;;;;-144.32;100.00;68061.97;10349247;28;20050;-77
2024/01/12 04:32:43;;;;;;;21.20;12.30;;;;;;;-144.32;100.00;68061.97;10347829;28;20045;-73
2024/01/12 04:38:43;;;;;;;21.25;12.13;;;;;;;-144.32;100.00;68061.97;10331731;28;20965;-74
2024/01/12 04:44:43;;;;;;;19.48;11.85;;;;;;;-144.32;100.00;68061.97;10350485;28;20456;-75
2024/01/12 04:50:42;;;;;;;21.88;11.68;;;;;;;-144.32;100.00;68061.97;10352457;28;20140;-75
2024/01/12 04:56:42;;;;;;;23.77;12.40;;;;;;;-144.32;100.00;68061.97;10356840;28;20059;-76
2024/01/12 05:02:41;;;;;;;20.30;11.68;;;;;;;-144.32;100.00;68061.97;10352245;28;20104;-79
2024/01/12 05:08:41;;;;;;;22.65;12.35;;;;;;;-144.32;100.00;68061.97;10359611;28;20058;-75
2024/01/12 05:14:41;;;;;;;18.52;10.75;;;;;;;-144.32;100.00;68061.97;10365925;28;20060;-76
2024/01/12 05:20:40;;;;;;;20.73;11.23;;;;;;;-144.32;100.00;68061.97;10382556;28;20110;-77
2024/01/12 05:26:39;;;;;;;15.52;10.20;;;;;;;-144.32;100.00;68061.97;10381769;28;20058;-76
2024/01/12 05:32:38;;;;;;;16.67;10.40;;;;;;;-144.32;100.00;68061.97;10349119;28;20073;-78
2024/01/12 05:38:37;;;;;;;21.58;10.30;;;;;;;-144.32;100.00;68061.97;10339767;28;20104;-76
2024/01/12 05:44:36;;;;;;;18.38;10.70;;;;;;;-144.32;100.00;68061.97;10351274;28;20493;-75
2024/01/12 05:50:36;;;;;;;18.85;10.35;;;;;;;-144.32;100.00;68061.97;10332151;28;20453;-76
2024/01/12 05:56:34;;;;;;;18.55;11.55;;;;;;;-144.32;100.00;68061.97;10351662;28;20046;-76
2024/01/12 06:02:33;;;;;;;18.17;10.65;;;;;;;-144.32;100.00;68061.97;10339100;28;20072;-77
2024/01/12 06:08:32;;;;;;;18.10;10.73;;;;;;;-144.32;100.00;68061.97;10349981;28;20053;-77
2024/01/12 06:14:31;;;;;;;15.57;10.32;;;;;;;-144.32;100.00;68061.97;10359765;28;20064;-78
2024/01/12 06:20:31;;;;;;;15.80;10.23;;;;;;;-144.32;100.00;68061.97;10353735;28;20050;-78
2024/01/12 06:26:30;;;;;;;18.70;10.35;;;;;;;-144.32;100.00;68061.97;10343069;28;20061;-76
2024/01/12 06:32:30;;;;;;;19.98;9.70;;;;;;;-144.32;100.00;68061.97;10339004;28;20168;-77
2024/01/12 06:38:29;;;;;;;16.58;9.35;;;;;;;-144.32;100.00;68061.97;10357904;28;20065;-77
2024/01/12 06:44:28;;;;;;;13.68;9.27;;;;;;;-144.32;100.00;68061.97;10333601;28;20108;-77
2024/01/12 06:50:29;;;;;;;12.70;8.23;;;;;;;-144.32;100.00;68061.97;10349335;28;20057;-78
2024/01/12 06:56:28;;;;;;;13.50;8.43;;;;;;;-144.32;100.00;68061.97;10356114;28;20597;-75
2024/01/12 07:02:27;;;;;;;14.90;8.65;;;;;;;-144.32;100.00;68061.97;10353511;28;20046;-77
2024/01/12 07:08:26;;;;;;;12.48;8.40;;;;;;;-144.32;100.00;68061.97;10357410;28;20804;-77
2024/01/12 07:14:25;;;;;;;11.38;7.63;;;;;;;-144.32;100.00;68061.97;10344682;28;20054;-76
2024/01/12 07:20:24;;;;;;;13.40;8.23;;;;;;;-144.32;100.00;68061.97;10333332;28;20108;-74
2024/01/12 07:26:23;;;;;;;11.73;7.97;;;;;;;-144.32;100.00;68061.97;10367724;28;20081;-76
2024/01/12 07:32:22;;;;;;;13.60;7.90;;;;;;;-144.32;100.00;68061.97;10368425;28;20500;-77
2024/01/12 07:38:20;;;;;;;11.05;7.55;;;;;;;-144.32;100.00;68061.97;10386801;28;20093;-75
2024/01/12 07:44:19;;;;;;;11.05;7.03;;;;;;;-144.32;100.00;68061.97;10356030;28;20072;-73
2024/01/12 07:50:18;;;;;;;13.68;7.45;;;;;;;-144.32;100.00;68061.97;10353471;28;21128;-72
2024/01/12 07:56:17;;;;;;;10.40;7.63;;;;;;;-144.32;100.00;68061.97;10323780;28;20084;-76
2024/01/12 08:02:16;;;;;;;10.48;7.35;;;;;;;-144.32;100.00;68061.97;10356372;28;20053;-77
2024/01/12 08:08:16;;;;;;;13.45;8.02;;;;;;;-144.32;100.00;68061.97;10338518;28;20714;-76
2024/01/12 08:14:16;;;;;;;11.38;6.72;;;;;;;-144.32;100.00;68061.97;10355150;28;20050;-75
2024/01/12 08:20:15;;;;;;;12.75;8.07;;;;;;;-144.32;100.00;68061.97;10324678;28;20042;-74
2024/01/12 08:26:14;;;;;;;12.82;7.53;;;;;;;-144.32;100.00;68061.97;10344926;28;20135;-75
2024/01/12 08:32:14;;;;;;;12.75;7.70;;;;;;;-144.32;100.00;68061.97;10341729;28;20042;-77
2024/01/12 08:38:13;;;;;;;12.57;7.63;;;;;;;-144.32;100.00;68061.97;10373075;28;20505;-77
2024/01/12 08:44:13;;;;;;;12.95;8.02;;;;;;;-144.32;100.00;68061.97;10367670;28;20068;-77
2024/01/12 08:50:12;;;;;;;15.15;8.88;;;;;;;-144.32;100.00;68061.97;10358163;28;20049;-77
2024/01/12 08:56:11;;;;;;;13.43;8.68;;;;;;;-144.32;100.00;68061.97;10355301;28;20141;-74
2024/01/12 09:02:10;;;;;;;13.45;8.55;;;;;;;-144.32;100.00;68061.97;10320585;28;20095;-75
2024/01/12 09:08:10;;;;;;;13.55;7.88;;;;;;;-144.32;100.00;68061.97;10369321;28;20062;-75
2024/01/12 09:14:09;;;;;;;12.38;7.35;;;;;;;-144.32;100.00;68061.97;10356498;28;20050;-74
2024/01/12 09:20:08;;;;;;;10.85;7.07;;;;;;;-144.32;100.00;68061.97;10355432;28;20058;-75
2024/01/12 09:26:09;;;;;;;12.52;7.55;;;;;;;-144.32;100.00;68061.97;10361485;28;20049;-76
2024/01/12 09:32:08;;;;;;;13.70;9.07;;;;;;;-144.32;100.00;68061.97;10354250;28;20137;-77
2024/01/12 09:38:07;;;;;;;11.80;7.60;;;;;;;-144.32;100.00;68061.97;10356165;28;20159;-76
2024/01/12 09:44:11;;;;;;;13.52;8.05;;;;;;;-144.32;100.00;68061.97;10341426;28;21250;-73
2024/01/12 09:50:12;;;;;;;12.60;8.05;;;;;;;-144.32;100.00;68061.97;10342120;28;20937;-77
2024/01/12 09:56:12;;;;;;;19.98;12.25;;;;;;;-144.32;100.00;68061.97;10338259;28;20053;-75
2024/01/12 10:02:15;;;;;;;13.73;8.25;;;;;;;-144.32;100.00;68061.97;10358945;28;20058;-77
2024/01/12 10:08:14;;;;;;;11.75;8.02;;;;;;;-144.32;100.00;68061.97;10360378;28;20062;-78
2024/01/12 10:14:19;;;;;;;13.38;8.15;;;;;;;-144.32;100.00;68061.97;10358437;28;20049;-81
2024/01/12 10:20:18;;;;;;;13.48;9.07;;;;;;;-144.32;100.00;68061.97;10338962;28;20524;-75
2024/01/12 10:26:17;;;;;;;11.98;8.25;;;;;;;-144.32;100.00;68061.97;10356427;28;20058;-75
2024/01/12 10:32:20;;;;;;;12.45;8.55;;;;;;;-144.32;100.00;68061.97;10335492;28;20053;-76
2024/01/12 10:38:20;;;;;;;13.73;8.75;;;;;;;-144.32;100.00;68061.97;10354136;28;20065;-77
2024/01/12 10:44:21;;;;;;;14.57;9.13;;;;;;;-144.32;100.00;68061.97;10347025;28;20906;-80
2024/01/12 10:50:24;;;;;;;12.90;8.73;;;;;;;-144.32;100.00;68061.97;10354195;28;20115;-76
2024/01/12 10:56:25;;;;;;;11.95;8.38;;;;;;;-144.32;100.00;68061.97;10352908;28;21001;-75
2024/01/12 11:02:25;;;;;;;12.32;8.25;;;;;;;-144.32;100.00;68061.97;10351388;28;20049;-78
2024/01/12 11:08:26;;;;;;;14.65;9.15;;;;;;;-144.32;100.00;68061.97;10358450;28;20540;-75
2024/01/12 11:14:25;;;;;;;15.27;8.80;;;;;;;-144.32;100.00;68061.97;10350459;28;20149;-76
2024/01/12 11:20:24;;;;;;;14.50;9.00;;;;;;;-144.32;100.00;68061.97;10346932;28;20169;-75
2024/01/12 11:26:24;;;;;;;12.88;8.95;;;;;;;-144.32;100.00;68061.97;10353901;28;20057;-79
2024/01/12 11:32:23;;;;;;;16.77;9.85;;;;;;;-144.32;100.00;68061.97;10332473;28;20468;-76
2024/01/12 11:38:25;;;;;;;14.70;9.80;;;;;;;-144.32;100.00;68061.97;10351540;28;20057;-78
2024/01/12 11:44:24;;;;;;;14.18;9.38;;;;;;;-144.32;100.00;68061.97;10356431;28;20092;-76
2024/01/12 11:50:25;;;;;;;14.35;9.15;;;;;;;-144.32;100.00;68061.97;10354210;28;20054;-76
2024/01/12 11:56:26;;;;;;;18.50;10.00;;;;;;;-144.32;100.00;68061.97;10359255;28;20077;-76
2024/01/12 12:02:25;;;;;;;15.20;9.25;;;;;;;-144.32;100.00;68061.97;10376275;28;20046;-75
2024/01/12 12:08:27;;;;;;;17.75;10.55;;;;;;;-144.32;100.00;68061.97;10358011;28;20205;-76
2024/01/12 12:14:28;;;;;;;15.85;10.50;;;;;;;-144.32;100.00;68061.97;10354878;28;20061;-76
2024/01/12 12:20:27;;;;;;;18.70;11.23;;;;;;;-144.32;100.00;68061.97;10355911;28;20103;-75
2024/01/12 12:26:27;;;;;;;20.40;12.23;;;;;;;-144.32;100.00;68061.97;10355676;28;20061;-76
2024/01/12 12:32:26;;;;;;;20.33;11.48;;;;;;;-144.32;100.00;68061.97;10353930;28;20046;-78
2024/01/12 12:38:25;;;;;;;17.50;11.50;;;;;;;-144.32;100.00;68061.97;10357286;28;20049;-79
2024/01/12 12:44:25;;;;;;;19.92;10.68;;;;;;;-144.32;100.00;68061.97;10354592;28;20045;-76
2024/01/12 12:50:36;;;;;;;22.45;11.60;;;;;;;-144.32;100.00;68061.97;10338389;28;20148;-78
2024/01/12 12:56:36;;;;;;;19.45;12.00;;;;;;;-144.32;100.00;68061.97;10356533;28;20057;-75
2024/01/12 13:02:35;;;;;;;16.50;10.32;;;;;;;-144.32;100.00;68061.97;10355543;28;20504;-76
2024/01/12 13:08:34;;;;;;;16.08;10.07;;;;;;;-144.32;100.00;68061.97;10360126;28;20038;-78
2024/01/12 13:14:33;;;;;;;18.25;11.15;;;;;;;-144.32;100.00;68061.97;10359845;28;20082;-77
2024/01/12 13:20:32;;;;;;;18.52;10.32;;;;;;;-144.32;100.00;68061.97;10353473;28;20061;-78
2024/01/12 13:26:32;;;;;;;18.23;10.20;;;;;;;-144.32;100.00;68061.97;10355638;28;20480;-79
2024/01/12 13:32:31;;;;;;;18.70;11.55;;;;;;;-144.32;100.00;68061.97;10356948;28;20042;-78
2024/01/12 13:38:30;;;;;;;19.38;11.00;;;;;;;-144.32;100.00;68061.97;10360087;28;20064;-80
2024/01/12 13:44:29;;;;;;;19.67;11.65;;;;;;;-144.32;100.00;68061.97;10337253;28;20073;-80
2024/01/12 13:50:28;;;;;;;20.92;12.10;;;;;;;-144.32;100.00;68061.97;10329668;28;20046;-77
2024/01/12 13:56:27;;;;;;;18.10;10.00;;;;;;;-144.32;100.00;68061.97;10353570;28;20057;-77
2024/01/12 14:02:27;;;;;;;19.65;10.70;;;;;;;-144.32;100.00;68061.97;10347163;28;20086;-76
2024/01/12 14:08:27;;;;;;;15.90;9.70;;;;;;;-144.32;100.00;68061.97;10348178;28;20104;-78
2024/01/12 14:14:26;;;;;;;19.52;10.05;;;;;;;-144.32;100.00;68061.97;10347855;28;20049;-77
2024/01/12 14:20:26;;;;;;;27.98;16.20;;;;;;;-144.32;100.00;68061.97;10355971;28;20133;-77
2024/01/12 14:26:26;;;;;;;17.50;10.18;;;;;;;-144.32;100.00;68061.97;10335363;28;20157;-76
2024/01/12 14:32:26;;;;;;;17.80;10.50;;;;;;;-144.32;100.00;68061.97;10355359;28;20854;-77
2024/01/12 14:38:25;;;;;;;17.75;10.38;;;;;;;-144.32;100.00;68061.97;10357831;28;20054;-80
2024/01/12 14:44:25;;;;;;;18.48;10.73;;;;;;;-144.32;100.00;68061.97;10355252;28;20053;-78
2024/01/12 14:50:25;;;;;;;19.98;10.85;;;;;;;-144.32;100.00;68061.97;10347742;28;20058;-75
2024/01/12 14:56:24;;;;;;;23.45;11.85;;;;;;;-144.32;100.00;68061.97;10355155;28;20527;-75
2024/01/12 15:02:23;;;;;;;21.55;10.93;;;;;;;-144.32;100.00;68061.97;10330372;28;20569;-76
2024/01/12 15:08:22;;;;;;;21.17;10.65;;;;;;;-144.32;100.00;68061.97;10369402;28;20056;-77
2024/01/12 15:14:21;;;;;;;18.50;9.80;;;;;;;-144.32;100.00;68061.97;10359918;28;20076;-77
2024/01/12 15:20:20;;;;;;;18.75;9.82;;;;;;;-144.32;100.00;68061.97;10347485;28;20049;-76
2024/01/12 15:26:19;;;;;;;17.00;9.70;;;;;;;-144.32;100.00;68061.97;10330030;28;20061;-76
2024/01/12 15:32:18;;;;;;;17.80;9.50;;;;;;;-144.32;100.00;68061.97;10335947;28;20739;-77
2024/01/12 15:38:17;;;;;;;20.05;9.77;;;;;;;-144.32;100.00;68061.97;10358742;28;20116;-76
2024/01/12 15:44:17;;;;;;;19.40;10.20;;;;;;;-144.32;100.00;68061.97;10352752;28;20062;-77
2024/01/12 15:50:16;;;;;;;16.98;9.98;;;;;;;-144.32;100.00;68061.97;10344528;28;20103;-78
2024/01/12 15:56:18;;;;;;;17.90;9.63;;;;;;;-144.32;100.00;68061.97;10327809;28;20057;-74
2024/01/12 16:02:20;;;;;;;20.38;9.95;;;;;;;-144.32;100.00;68061.97;10350064;28;20241;-78
2024/01/12 16:08:19;;;;;;;23.25;11.65;;;;;;;-144.32;100.00;68061.97;10347809;28;20477;-76
2024/01/12 16:14:18;;;;;;;23.35;12.10;;;;;;;-144.32;100.00;68061.97;10328629;28;20046;-77
2024/01/12 16:20:18;;;;;;;21.60;11.75;;;;;;;-144.32;100.00;68061.97;10350075;28;20054;-77
2024/01/12 16:26:17;;;;;;;20.90;10.82;;;;;;;-144.32;100.00;68061.97;10339273;28;20049;-77
2024/01/12 16:32:16;;;;;;;21.90;11.25;;;;;;;-144.32;100.00;68061.97;10344315;28;20054;-77
2024/01/12 16:38:15;;;;;;;20.80;11.05;;;;;;;-144.32;100.00;68061.97;10350869;28;20045;-77
2024/01/12 16:44:14;;;;;;;21.35;11.75;;;;;;;-144.32;100.00;68061.97;10345993;28;20065;-78
2024/01/12 16:50:14;;;;;;;22.20;11.25;;;;;;;-144.32;100.00;68061.97;10332718;28;20065;-77
2024/01/12 16:56:13;;;;;;;22.33;11.45;;;;;;;-144.32;100.00;68061.97;10346716;28;20544;-78
2024/01/12 17:02:15;;;;;;;26.38;12.23;;;;;;;-144.32;100.00;68061.97;10351470;28;20045;-75
2024/01/12 17:08:15;;;;;;;22.40;11.63;;;;;;;-144.32;100.00;68061.97;10350670;28;20172;-78
2024/01/12 17:14:14;;;;;;;29.92;13.45;;;;;;;-144.32;100.00;68061.97;10354279;28;20633;-75
2024/01/12 17:20:13;;;;;;;24.65;11.70;;;;;;;-144.32;100.00;68061.97;10349709;28;20109;-77
2024/01/12 17:26:12;;;;;;;24.85;11.95;;;;;;;-144.32;100.00;68061.97;10325082;28;20159;-76
2024/01/12 17:32:11;;;;;;;23.17;11.32;;;;;;;-144.32;100.00;68061.97;10355298;28;20053;-75
2024/01/12 17:38:10;;;;;;;23.27;11.60;;;;;;;-144.32;100.00;68061.97;10344661;28;20062;-77
2024/01/12 17:44:09;;;;;;;26.75;12.23;;;;;;;-144.32;100.00;68061.97;10359877;28;20071;-78
2024/01/12 17:50:09;;;;;;;27.45;12.00;;;;;;;-144.32;100.00;68061.97;10337913;28;20948;-77
2024/01/12 17:56:08;;;;;;;27.65;12.52;;;;;;;-144.32;100.00;68061.97;10336928;28;20050;-78
2024/01/12 18:02:12;;;;;;;25.63;12.90;;;;;;;-144.32;100.00;68061.97;10358331;28;20108;-78
2024/01/12 18:08:12;;;;;;;22.40;11.02;;;;;;;-144.32;100.00;68061.97;10336871;28;20054;-80
2024/01/12 18:14:11;;;;;;;23.42;11.73;;;;;;;-144.32;100.00;68061.97;10325022;28;20148;-80
2024/01/12 18:20:10;;;;;;;21.88;11.13;;;;;;;-144.32;100.00;68061.97;10357444;28;20465;-77
2024/01/12 18:26:09;;;;;;;17.92;10.30;;;;;;;-144.32;100.00;68061.97;10377710;28;20053;-78
2024/01/12 18:32:08;;;;;;;23.98;11.55;;;;;;;-144.32;100.00;68061.97;10331553;28;20838;-76
2024/01/12 18:38:07;;;;;;;24.73;11.98;;;;;;;-144.32;100.00;68061.97;10347195;28;20057;-77
2024/01/12 18:44:06;;;;;;;19.70;10.57;;;;;;;-144.32;100.00;68061.97;10349005;28;20133;-74
2024/01/12 18:50:06;;;;;;;21.00;10.73;;;;;;;-144.32;100.00;68061.97;10324969;28;20107;-76
2024/01/12 18:56:05;;;;;;;22.63;11.45;;;;;;;-144.32;100.00;68061.97;10349773;28;20038;-75
2024/01/12 19:02:04;;;;;;;18.33;9.35;;;;;;;-144.32;100.00;68061.97;10325111;28;20050;-76
2024/01/12 19:08:03;;;;;;;20.52;10.48;;;;;;;-144.32;100.00;68061.97;10314850;28;20053;-77
2024/01/12 19:14:02;;;;;;;22.23;10.88;;;;;;;-144.32;100.00;68061.97;10334094;28;20057;-79
2024/01/12 19:20:03;;;;;;;22.45;10.30;;;;;;;-144.32;100.00;68061.97;10324195;28;20062;-76
2024/01/12 19:26:06;;;;;;;22.17;11.10;;;;;;;-144.32;100.00;68061.97;10360288;28;20041;-78
2024/01/12 19:32:11;;;;;;;20.55;10.27;;;;;;;-144.32;100.00;68061.97;10356415;28;20056;-80
2024/01/12 19:38:10;;;;;;;30.45;12.40;;;;;;;-144.32;100.00;68061.97;10341653;28;20069;-77
2024/01/12 19:44:10;;;;;;;24.17;11.75;;;;;;;-144.32;100.00;68061.97;10363572;28;20060;-80
2024/01/12 19:50:09;;;;;;;25.48;11.32;;;;;;;-144.32;100.00;68061.97;10340861;28;20064;-77
2024/01/12 19:56:09;;;;;;;24.80;11.85;;;;;;;-144.32;100.00;68061.97;10340156;28;20064;-76
2024/01/12 20:02:09;;;;;;;28.85;12.98;;;;;;;-144.32;100.00;68061.97;10361941;28;20065;-77
2024/01/12 20:08:08;;;;;;;25.67;12.18;;;;;;;-144.32;100.00;68061.97;10340388;28;20045;-79
2024/01/12 20:14:07;;;;;;;30.35;13.32;;;;;;;-144.32;100.00;68061.97;10340805;28;20149;-79
2024/01/12 20:20:07;;;;;;;27.90;12.52;;;;;;;-144.32;100.00;68061.97;10344849;28;20060;-79
2024/01/12 20:26:06;;;;;;;20.33;9.50;;;;;;;-144.32;100.00;68061.97;10368218;28;20057;-76
2024/01/12 20:32:05;;;;;;;19.55;9.48;;;;;;;-144.32;100.00;68061.97;10336790;28;20586;-77
2024/01/12 20:38:04;;;;;;;14.82;7.35;;;;;;;-144.32;100.00;68061.97;10353065;28;20052;-79
2024/01/12 20:44:04;;;;;;;18.65;8.98;;;;;;;-144.32;100.00;68061.97;10329953;28;20050;-80
2024/01/12 20:50:04;;;;;;;18.75;8.52;;;;;;;-144.32;100.00;68061.97;10338477;28;20061;-80
2024/01/12 20:56:03;;;;;;;16.02;7.63;;;;;;;-144.32;100.00;68061.97;10345900;28;21058;-77
2024/01/12 21:02:02;;;;;;;16.00;7.55;;;;;;;-144.32;100.00;68061.97;10359724;28;20224;-78
2024/01/12 21:08:01;;;;;;;16.95;8.20;;;;;;;-144.32;100.00;68061.97;10358555;28;20050;-81
2024/01/12 21:14:01;;;;;;;16.65;8.48;;;;;;;-144.32;100.00;68061.97;10340020;28;21133;-81
2024/01/12 21:20:00;;;;;;;17.35;9.70;;;;;;;-144.32;100.00;68061.97;10357292;28;20066;-79
2024/01/12 21:26:00;;;;;;;17.27;7.85;;;;;;;-144.32;100.00;68061.97;10355437;28;20510;-81
2024/01/12 21:31:59;;;;;;;17.48;8.93;;;;;;;-144.32;100.00;68061.97;10345954;28;20066;-82
2024/01/12 21:37:59;;;;;;;17.45;8.02;;;;;;;-144.32;100.00;68061.97;10369160;28;20054;-78
2024/01/12 21:44:02;;;;;;;16.23;7.82;;;;;;;-144.32;100.00;68061.97;10349891;28;20081;-80
2024/01/12 21:50:02;;;;;;;14.95;7.18;;;;;;;-144.32;100.00;68061.97;10363870;28;20044;-78
2024/01/12 21:56:01;;;;;;;15.82;8.00;;;;;;;-144.32;100.00;68061.97;10339084;28;20069;-80
2024/01/12 22:02:01;;;;;;;13.13;6.75;;;;;;;-144.32;100.00;68061.97;10354548;28;20056;-80
2024/01/12 22:08:00;;;;;;;13.82;7.10;;;;;;;-144.32;100.00;68061.97;10344613;28;20509;-80
2024/01/12 22:13:59;;;;;;;13.05;7.72;;;;;;;-144.32;100.00;68061.97;10348498;28;20050;-78
2024/01/12 22:19:58;;;;;;;12.13;6.75;;;;;;;-144.32;100.00;68061.97;10355685;28;20176;-81
2024/01/12 22:25:57;;;;;;;11.55;7.10;;;;;;;-144.32;100.00;68061.97;10356112;28;20050;-82
2024/01/12 22:31:57;;;;;;;15.07;8.10;;;;;;;-144.32;100.00;68061.97;10336084;28;20077;-79
2024/01/12 22:37:56;;;;;;;14.20;7.80;;;;;;;-144.32;100.00;68061.97;10361777;28;20479;-76
2024/01/12 22:43:56;;;;;;;13.25;7.53;;;;;;;-144.32;100.00;68061.97;10354060;28;20053;-75
2024/01/12 22:49:55;;;;;;;13.57;7.32;;;;;;;-144.32;100.00;68061.97;10340558;28;20049;-78
2024/01/12 22:55:54;;;;;;;11.82;7.07;;;;;;;-144.32;100.00;68061.97;10352032;28;20060;-81
2024/01/12 23:01:53;;;;;;;12.50;7.15;;;;;;;-144.32;100.00;68061.97;10354761;28;20509;-76
2024/01/12 23:07:52;;;;;;;18.08;10.93;;;;;;;-144.32;100.00;68061.97;10353576;28;20544;-78
2024/01/12 23:13:51;;;;;;;15.68;8.02;;;;;;;-144.32;100.00;68061.97;10362061;28;20053;-76
2024/01/12 23:19:50;;;;;;;17.20;6.93;;;;;;;-144.32;100.00;68061.97;10350738;28;20135;-77
2024/01/12 23:25:49;;;;;;;15.95;8.23;;;;;;;-144.32;100.00;68061.97;10363658;28;20053;-83
2024/01/12 23:31:51;;;;;;;12.45;6.97;;;;;;;-144.32;100.00;68061.97;10352178;28;21128;-77
2024/01/12 23:37:51;;;;;;;18.30;8.82;;;;;;;-144.32;100.00;68061.97;10350509;28;20128;-79
2024/01/12 23:43:50;;;;;;;18.38;9.15;;;;;;;-144.32;100.00;68061.97;10361106;28;20092;-80
2024/01/12 23:49:49;;;;;;;17.92;8.50;;;;;;;-144.32;100.00;68061.97;10350321;28;20058;-80
2024/01/12 23:55:49;;;;;;;19.08;9.63;;;;;;;-144.32;100.00;68061.97;10350996;28;20053;-79
